Weather reports worldwide

Advertisment
Punta Galea Golf, Spain (8059): temperature & dewpoint: 16.09.2018 23:00:00 - 22.09.2018 23:00:00 (CEST)Punta Galea Golf, Spain (8059): wind speed & gusts: 16.09.2018 23:00:00 - 22.09.2018 23:00:00 (CEST)Punta Galea Golf, Spain (8059): wind direction: 16.09.2018 23:00:00 - 22.09.2018 23:00:00 (CEST)Punta Galea Golf, Spain (8059): reduced air pressure: 16.09.2018 23:00:00 - 22.09.2018 23:00:00 (CEST)Punta Galea Golf, Spain (8059): precipitation: 16.09.2018 23:00:00 - 22.09.2018 23:00:00 (CEST)
Date & Time tt [°C] td [°C] ff [km/h] ff [kn] fx [km/h] fx [kn] dd ppp [hPa] rr [mm]
22.09.2018 23:00:00 18,3 17,0 6 3 8 4 S 1026,1 0,0
22.09.2018 22:00:00 19,1 17,6 1 1 7 4 WNW 1025,8 0,0
22.09.2018 21:00:00 19,5 17,5 0 0 8 4 W 1025,2 0,0
22.09.2018 20:00:00 20,9 17,9 5 3 8 4 WNW 1024,6 -
22.09.2018 19:00:00 23,0 17,2 4 2 8 4 NNW 1024,6 0,0
22.09.2018 18:00:00 23,8 17,1 5 3 10 5 N 1024,2 0,0
22.09.2018 17:00:00 22,7 19,1 3 2 13 7 NNE 1024,4 0,0
22.09.2018 16:00:00 22,5 18,1 6 3 11 6 N 1024,4 0,0
22.09.2018 15:00:00 22,9 19,1 9 5 12 6 NE 1024,1 0,0
22.09.2018 14:00:00 21,9 18,1 6 3 10 6 NNE 1024,1 -
22.09.2018 13:00:00 21,7 18,5 6 4 10 5 NNE 1024,4 0,0
22.09.2018 12:00:00 21,8 17,0 3 2 13 7 NE 1024,0 0,0
22.09.2018 11:00:00 21,5 17,7 7 4 15 8 SSE 1024,0 0,0
22.09.2018 10:00:00 19,4 17,7 8 5 16 9 SSE 1023,7 0,0
22.09.2018 09:00:00 17,4 16,7 8 4 17 9 S 1023,6 0,0
22.09.2018 08:00:00 16,7 16,0 6 4 16 9 S 1023,2 -
22.09.2018 07:00:00 16,8 16,1 9 5 19 11 SSE 1023,0 0,0
22.09.2018 06:00:00 17,1 16,5 7 4 13 7 SSE 1023,6 0,0
22.09.2018 05:00:00 17,3 16,5 5 3 9 5 SSE 1023,9 0,0
22.09.2018 04:00:00 17,9 17,1 4 2 6 4 SE 1024,5 0,0
22.09.2018 03:00:00 18,1 17,3 4 2 10 6 SE 1024,9 0,0
22.09.2018 02:00:00 18,0 17,2 2 1 7 4 SE 1025,3 -
22.09.2018 01:00:00 17,9 17,1 4 2 6 4 SSE 1025,4 0,0
22.09.2018 00:00:00 18,3 17,3 0 0 3 1 N 1025,4 0,0
21.09.2018 23:00:00 18,3 17,3 1 0 12 7 SW 1025,4 0,0
21.09.2018 22:00:00 18,2 17,2 6 3 18 10 E 1025,4 0,0
21.09.2018 21:00:00 18,0 17,2 10 6 18 10 ENE 1025,0 0,0
21.09.2018 20:00:00 18,4 17,6 4 2 16 8 NE 1024,5 -
21.09.2018 19:00:00 18,6 17,8 10 6 19 11 NNE 1024,2 0,0
21.09.2018 18:00:00 19,1 18,1 9 5 19 10 WNW 1023,9 0,0
21.09.2018 17:00:00 19,8 18,1 7 4 21 12 WNW 1023,4 0,0
21.09.2018 16:00:00 20,3 18,4 11 6 27 14 NW 1023,3 0,0
21.09.2018 15:00:00 21,4 18,4 8 4 18 10 NW 1022,9 0,0
21.09.2018 14:00:00 21,6 16,7 4 2 14 7 N 1022,8 -
21.09.2018 13:00:00 21,5 15,3 6 3 14 7 NW 1022,9 0,0
21.09.2018 12:00:00 21,1 17,3 2 1 13 7 W 1022,5 0,0
21.09.2018 11:00:00 19,0 18,0 9 5 18 10 SSE 1021,5 0,0
21.09.2018 10:00:00 17,4 16,7 10 6 16 9 SSE 1021,1 0,0
21.09.2018 09:00:00 16,9 16,2 9 5 15 8 SSE 1020,6 0,0
21.09.2018 08:00:00 16,7 16,0 8 4 13 7 SSE 1020,1 -
21.09.2018 07:00:00 16,8 16,1 8 4 13 7 SSE 1019,2 0,0
21.09.2018 06:00:00 17,3 16,6 3 1 8 4 SSE 1019,0 0,0
21.09.2018 05:00:00 18,2 17,5 4 2 9 5 S 1018,6 0,0
21.09.2018 04:00:00 17,6 17,0 6 3 9 5 SSE 1018,3 0,0
21.09.2018 03:00:00 17,9 17,2 3 2 6 3 W 1018,6 0,0
21.09.2018 02:00:00 18,1 17,5 2 1 5 3 W 1018,6 -
21.09.2018 01:00:00 18,4 17,6 0 0 8 4 NW 1018,8 0,0
21.09.2018 00:00:00 18,4 17,4 4 2 7 4 S 1019,0 0,0
20.09.2018 23:00:00 19,0 18,0 5 3 6 3 SSE 1019,3 0,0
20.09.2018 22:00:00 19,5 18,5 0 0 3 2 N 1019,2 0,0
20.09.2018 21:00:00 19,7 18,9 1 1 9 5 W 1018,7 0,0
20.09.2018 20:00:00 19,7 18,9 6 3 10 5 W 1018,5 -
20.09.2018 19:00:00 20,3 19,1 7 4 14 8 WNW 1018,2 0,0
20.09.2018 18:00:00 21,5 19,6 10 5 16 8 WNW 1018,0 0,0
20.09.2018 17:00:00 22,4 19,8 7 4 16 8 NNW 1018,1 0,0
20.09.2018 16:00:00 22,5 19,8 6 4 17 9 N 1018,0 0,0
20.09.2018 15:00:00 22,1 19,5 13 7 19 10 NE 1018,6 0,0
20.09.2018 14:00:00 22,9 20,5 11 6 23 12 NE 1018,7 -
20.09.2018 13:00:00 22,8 19,6 11 6 17 9 NE 1019,6 0,0
20.09.2018 12:00:00 23,2 19,3 5 3 14 8 NNE 1019,8 0,0
20.09.2018 11:00:00 22,9 19,1 8 4 16 9 SE 1019,9 0,0
20.09.2018 10:00:00 20,7 19,6 6 3 9 5 E 1020,0 0,0
20.09.2018 09:00:00 18,9 18,2 4 2 8 5 SSE 1020,6 0,0
20.09.2018 08:00:00 18,6 17,9 4 2 8 4 SSE 1021,0 -
20.09.2018 07:00:00 18,6 17,9 2 1 7 4 SSE 1021,2 0,0
20.09.2018 06:00:00 18,4 17,8 4 2 7 4 S 1021,5 0,0
20.09.2018 05:00:00 18,4 17,9 4 2 6 4 S 1021,9 0,0
20.09.2018 04:00:00 18,4 17,9 2 1 6 3 S 1022,6 0,0
20.09.2018 03:00:00 18,0 17,5 5 3 6 3 SSE 1023,1 0,0
20.09.2018 02:00:00 17,7 17,1 5 3 8 5 S 1023,3 -
20.09.2018 01:00:00 17,8 17,1 0 0 5 3 N 1023,5 0,0
20.09.2018 00:00:00 18,1 17,5 4 2 5 3 S 1023,7 0,0
19.09.2018 23:00:00 18,5 17,9 2 1 4 2 WSW 1023,7 0,0
19.09.2018 22:00:00 19,0 18,3 0 0 5 3 N 1023,3 0,0
19.09.2018 21:00:00 19,3 18,6 4 2 6 3 WNW 1022,7 0,0
19.09.2018 20:00:00 19,7 18,9 4 2 11 6 WNW 1022,7 -
19.09.2018 19:00:00 20,3 19,5 5 3 11 6 WNW 1022,6 0,0
19.09.2018 18:00:00 20,2 19,3 10 5 14 8 WNW 1022,5 0,0
19.09.2018 17:00:00 19,7 18,9 8 4 18 10 W 1022,3 0,0
19.09.2018 16:00:00 20,0 19,2 11 6 19 11 WNW 1022,6 0,0
19.09.2018 15:00:00 21,3 20,3 11 6 21 11 WNW 1022,3 0,0
19.09.2018 14:00:00 21,9 20,5 8 4 15 8 NNW 1022,3 -
19.09.2018 13:00:00 21,3 19,8 9 5 13 7 N 1022,1 0,0
19.09.2018 12:00:00 21,2 19,5 5 3 8 4 NNE 1022,3 0,0
19.09.2018 11:00:00 20,1 18,9 3 2 9 5 WNW 1022,6 0,0
19.09.2018 10:00:00 19,9 19,1 6 3 12 7 W 1022,0 0,0
19.09.2018 09:00:00 18,5 17,7 8 4 13 7 W 1021,5 0,0
19.09.2018 08:00:00 18,6 17,8 3 1 5 3 WSW 1020,7 -
19.09.2018 07:00:00 19,1 18,3 3 1 9 5 SE 1020,0 0,0
19.09.2018 06:00:00 19,1 18,3 5 3 10 5 SE 1019,6 0,0
19.09.2018 05:00:00 19,1 18,3 5 3 9 5 SSE 1020,0 0,0
19.09.2018 04:00:00 19,3 18,5 4 2 7 4 SSE 1020,4 0,0
19.09.2018 03:00:00 19,3 18,5 4 2 6 3 SE 1020,9 0,0
19.09.2018 02:00:00 19,3 18,5 3 2 6 3 N 1021,0 -
19.09.2018 01:00:00 19,4 18,6 3 2 9 5 SSE 1020,4 0,0
19.09.2018 00:00:00 19,3 18,5 5 3 9 5 S 1020,6 0,0
18.09.2018 23:00:00 19,9 19,1 0 0 5 3 N 1020,6 0,0
18.09.2018 22:00:00 19,9 19,1 3 1 5 3 SSW 1020,2 0,0
18.09.2018 21:00:00 20,2 19,3 3 2 7 4 WSW 1019,7 0,0
18.09.2018 20:00:00 20,4 19,6 3 2 6 3 W 1019,5 -
18.09.2018 19:00:00 20,6 19,8 3 2 9 5 N 1019,0 0,0
18.09.2018 18:00:00 20,6 19,8 4 2 16 9 NNE 1018,5 0,0
18.09.2018 17:00:00 20,5 19,7 10 6 17 9 NW 1017,9 0,0
18.09.2018 16:00:00 21,8 19,9 7 4 13 7 NNW 1017,6 0,0
18.09.2018 15:00:00 22,0 19,7 8 4 13 7 N 1017,4 0,0
18.09.2018 14:00:00 21,7 19,4 8 4 14 7 NNW 1018,0 -
18.09.2018 13:00:00 20,9 18,1 6 4 10 6 N 1018,5 0,0
18.09.2018 12:00:00 20,6 17,4 5 3 10 5 N 1018,5 0,0
18.09.2018 11:00:00 19,6 17,4 2 1 9 5 NNE 1018,3 0,0
18.09.2018 10:00:00 18,3 17,5 4 2 10 6 WNW 1017,8 0,0
18.09.2018 09:00:00 17,4 16,6 7 4 10 5 SSE 1017,6 0,0
18.09.2018 08:00:00 17,1 16,3 6 4 9 5 S 1016,8 -
18.09.2018 07:00:00 17,4 16,4 6 4 9 5 S 1016,4 0,0
18.09.2018 06:00:00 17,5 16,6 6 4 10 6 S 1016,3 0,0
18.09.2018 05:00:00 17,1 16,0 7 4 11 6 S 1016,2 0,0
18.09.2018 04:00:00 16,8 15,7 7 4 10 5 SSE 1016,5 0,0
18.09.2018 03:00:00 17,7 16,6 7 4 11 6 SSE 1016,4 0,0
18.09.2018 02:00:00 18,1 15,7 3 2 10 6 SW 1016,3 -
18.09.2018 01:00:00 19,0 16,4 5 3 12 6 W 1016,6 0,0
18.09.2018 00:00:00 19,2 17,4 1 0 11 6 WSW 1016,6 0,0
17.09.2018 23:00:00 19,6 18,2 6 3 11 6 W 1016,5 0,0
17.09.2018 22:00:00 19,5 18,3 7 4 14 8 WNW 1016,4 0,0
17.09.2018 21:00:00 20,3 19,3 6 3 20 11 SW 1014,8 0,1
17.09.2018 20:00:00 20,6 19,3 11 6 56 30 WNW 1013,9 -
17.09.2018 19:00:00 20,0 18,5 21 11 37 20 WNW 1012,4 0,0
17.09.2018 18:00:00 30,3 14,8 8 4 14 8 NE 1011,6 0,0
17.09.2018 17:00:00 31,5 15,1 4 2 11 6 NNE 1012,4 0,0
17.09.2018 16:00:00 32,3 14,4 4 2 16 9 NNW 1013,0 0,0
17.09.2018 15:00:00 32,8 14,4 6 3 24 13 SSW 1013,6 0,0
17.09.2018 14:00:00 31,7 15,3 12 6 31 17 SSE 1014,3 -
17.09.2018 13:00:00 30,2 15,9 12 7 29 16 S 1015,0 0,0
17.09.2018 12:00:00 28,4 16,3 11 6 29 16 S 1015,4 0,0
17.09.2018 11:00:00 26,0 16,0 13 7 30 16 SSE 1015,5 0,0
17.09.2018 10:00:00 22,5 17,4 12 7 24 13 SSE 1016,2 0,0
17.09.2018 09:00:00 19,4 17,7 10 6 18 10 SSE 1016,6 0,0
17.09.2018 08:00:00 16,6 16,0 2 1 8 4 S 1017,2 -
17.09.2018 07:00:00 16,9 16,2 3 2 7 4 SSE 1017,3 0,0
17.09.2018 06:00:00 17,3 16,5 4 2 12 6 SE 1017,9 0,0
17.09.2018 05:00:00 17,4 16,6 4 2 12 7 SE 1018,2 0,0
17.09.2018 04:00:00 17,9 17,1 1 1 6 4 ESE 1019,2 0,0
17.09.2018 03:00:00 17,7 16,7 4 2 6 4 SE 1019,8 0,0
17.09.2018 02:00:00 17,9 16,6 4 2 6 3 S 1020,7 -
17.09.2018 01:00:00 18,6 17,1 4 2 6 3 SSE 1021,4 0,0
17.09.2018 00:00:00 19,0 17,3 3 1 5 3 SSE 1021,9 0,0
16.09.2018 23:00:00 19,1 17,2 3 1 6 3 WNW 1022,1 0,0

tt = temperature
td = dewpoint
ff = wind speed
fx = gusts
dd = wind direction
ppp = reduced air pressure
rr = precipitation

Next stations